sensor_id;sensor_type;location;lat;lon;timestamp;temperature;humidity
4308;DHT22;2167;53.448;9.984;2023-04-06T00:01:53;3.50;1.00
4308;DHT22;2167;53.448;9.984;2023-04-06T00:04:18;3.50;1.00
4308;DHT22;2167;53.448;9.984;2023-04-06T00:06:44;3.40;1.00
4308;DHT22;2167;53.448;9.984;2023-04-06T00:09:10;3.30;1.00
4308;DHT22;2167;53.448;9.984;2023-04-06T00:11:35;3.30;1.40
4308;DHT22;2167;53.448;9.984;2023-04-06T00:14:01;3.30;2.40
4308;DHT22;2167;53.448;9.984;2023-04-06T00:16:26;3.30;2.10
4308;DHT22;2167;53.448;9.984;2023-04-06T00:18:52;3.40;1.90
4308;DHT22;2167;53.448;9.984;2023-04-06T00:21:18;3.30;2.20
4308;DHT22;2167;53.448;9.984;2023-04-06T00:23:43;3.30;2.70
4308;DHT22;2167;53.448;9.984;2023-04-06T00:26:09;3.10;3.40
4308;DHT22;2167;53.448;9.984;2023-04-06T00:28:36;3.10;4.50
4308;DHT22;2167;53.448;9.984;2023-04-06T00:31:02;3.10;5.30
4308;DHT22;2167;53.448;9.984;2023-04-06T00:33:28;3.10;5.50
4308;DHT22;2167;53.448;9.984;2023-04-06T00:35:53;3.10;5.00
4308;DHT22;2167;53.448;9.984;2023-04-06T00:38:22;3.10;4.20
4308;DHT22;2167;53.448;9.984;2023-04-06T00:40:47;3.00;4.00
4308;DHT22;2167;53.448;9.984;2023-04-06T00:43:13;2.90;4.50
4308;DHT22;2167;53.448;9.984;2023-04-06T00:45:40;2.80;5.70
4308;DHT22;2167;53.448;9.984;2023-04-06T00:48:06;2.80;5.90
4308;DHT22;2167;53.448;9.984;2023-04-06T00:50:32;2.70;6.20
4308;DHT22;2167;53.448;9.984;2023-04-06T00:52:59;2.70;6.90
4308;DHT22;2167;53.448;9.984;2023-04-06T00:55:26;2.70;7.00
4308;DHT22;2167;53.448;9.984;2023-04-06T00:57:52;2.70;6.40
4308;DHT22;2167;53.448;9.984;2023-04-06T01:00:18;2.60;6.40
4308;DHT22;2167;53.448;9.984;2023-04-06T01:02:46;2.50;6.70
4308;DHT22;2167;53.448;9.984;2023-04-06T01:05:13;2.50;7.10
4308;DHT22;2167;53.448;9.984;2023-04-06T01:07:39;2.40;7.10
4308;DHT22;2167;53.448;9.984;2023-04-06T01:10:05;2.30;7.40
4308;DHT22;2167;53.448;9.984;2023-04-06T01:12:30;2.30;7.80
4308;DHT22;2167;53.448;9.984;2023-04-06T01:14:56;2.30;8.70
4308;DHT22;2167;53.448;9.984;2023-04-06T01:17:24;2.30;8.90
4308;DHT22;2167;53.448;9.984;2023-04-06T01:19:50;2.20;8.70
4308;DHT22;2167;53.448;9.984;2023-04-06T01:22:19;2.20;9.30
4308;DHT22;2167;53.448;9.984;2023-04-06T01:24:45;2.20;9.20
4308;DHT22;2167;53.448;9.984;2023-04-06T01:27:11;2.10;9.30
4308;DHT22;2167;53.448;9.984;2023-04-06T01:29:36;2.10;9.90
4308;DHT22;2167;53.448;9.984;2023-04-06T01:32:02;2.10;10.00
4308;DHT22;2167;53.448;9.984;2023-04-06T01:34:28;2.00;10.20
4308;DHT22;2167;53.448;9.984;2023-04-06T01:36:54;2.00;10.40
4308;DHT22;2167;53.448;9.984;2023-04-06T01:39:20;2.00;11.00
4308;DHT22;2167;53.448;9.984;2023-04-06T01:41:46;1.90;11.30
4308;DHT22;2167;53.448;9.984;2023-04-06T01:44:17;2.00;11.90
4308;DHT22;2167;53.448;9.984;2023-04-06T01:46:46;2.00;11.50
4308;DHT22;2167;53.448;9.984;2023-04-06T01:49:12;2.00;11.50
4308;DHT22;2167;53.448;9.984;2023-04-06T01:51:37;2.00;11.40
4308;DHT22;2167;53.448;9.984;2023-04-06T01:54:03;1.90;11.50
4308;DHT22;2167;53.448;9.984;2023-04-06T01:56:29;1.80;12.40
4308;DHT22;2167;53.448;9.984;2023-04-06T01:58:55;1.80;13.50
4308;DHT22;2167;53.448;9.984;2023-04-06T02:01:21;1.90;13.70
4308;DHT22;2167;53.448;9.984;2023-04-06T02:03:47;1.80;12.60
4308;DHT22;2167;53.448;9.984;2023-04-06T02:06:12;1.80;12.50
4308;DHT22;2167;53.448;9.984;2023-04-06T02:08:38;1.80;12.60
4308;DHT22;2167;53.448;9.984;2023-04-06T02:11:04;1.80;12.70
4308;DHT22;2167;53.448;9.984;2023-04-06T02:13:29;1.70;12.10
4308;DHT22;2167;53.448;9.984;2023-04-06T02:15:55;1.70;11.30
4308;DHT22;2167;53.448;9.984;2023-04-06T02:18:21;1.70;11.10
4308;DHT22;2167;53.448;9.984;2023-04-06T02:20:46;1.60;11.40
4308;DHT22;2167;53.448;9.984;2023-04-06T02:23:12;1.50;11.70
4308;DHT22;2167;53.448;9.984;2023-04-06T02:25:38;1.50;12.60
4308;DHT22;2167;53.448;9.984;2023-04-06T02:28:03;1.40;12.80
4308;DHT22;2167;53.448;9.984;2023-04-06T02:30:29;1.30;13.30
4308;DHT22;2167;53.448;9.984;2023-04-06T02:32:57;1.30;14.20
4308;DHT22;2167;53.448;9.984;2023-04-06T02:35:22;1.40;14.20
4308;DHT22;2167;53.448;9.984;2023-04-06T02:37:48;1.40;13.90
4308;DHT22;2167;53.448;9.984;2023-04-06T02:40:14;1.40;14.40
4308;DHT22;2167;53.448;9.984;2023-04-06T02:42:39;1.30;15.20
4308;DHT22;2167;53.448;9.984;2023-04-06T02:45:06;1.20;15.90
4308;DHT22;2167;53.448;9.984;2023-04-06T02:47:35;1.10;16.60
4308;DHT22;2167;53.448;9.984;2023-04-06T02:50:00;1.10;17.10
4308;DHT22;2167;53.448;9.984;2023-04-06T02:52:26;1.00;17.70
4308;DHT22;2167;53.448;9.984;2023-04-06T02:54:52;1.00;18.00
4308;DHT22;2167;53.448;9.984;2023-04-06T02:57:18;1.00;18.50
4308;DHT22;2167;53.448;9.984;2023-04-06T02:59:43;1.10;19.30
4308;DHT22;2167;53.448;9.984;2023-04-06T03:02:09;1.20;18.80
4308;DHT22;2167;53.448;9.984;2023-04-06T03:04:34;1.20;17.10
4308;DHT22;2167;53.448;9.984;2023-04-06T03:07:00;1.20;16.30
4308;DHT22;2167;53.448;9.984;2023-04-06T03:09:25;1.20;16.00
4308;DHT22;2167;53.448;9.984;2023-04-06T03:11:51;1.20;16.20
4308;DHT22;2167;53.448;9.984;2023-04-06T03:14:17;1.20;16.20
4308;DHT22;2167;53.448;9.984;2023-04-06T03:16:47;1.30;16.20
4308;DHT22;2167;53.448;9.984;2023-04-06T03:19:13;1.30;16.00
4308;DHT22;2167;53.448;9.984;2023-04-06T03:21:38;1.40;15.70
4308;DHT22;2167;53.448;9.984;2023-04-06T03:24:05;1.40;15.20
4308;DHT22;2167;53.448;9.984;2023-04-06T03:26:30;1.40;14.70
4308;DHT22;2167;53.448;9.984;2023-04-06T03:28:56;1.40;13.90
4308;DHT22;2167;53.448;9.984;2023-04-06T03:31:36;1.40;13.20
4308;DHT22;2167;53.448;9.984;2023-04-06T03:34:02;1.40;11.30
4308;DHT22;2167;53.448;9.984;2023-04-06T03:36:27;1.30;11.20
4308;DHT22;2167;53.448;9.984;2023-04-06T03:38:53;1.30;11.70
4308;DHT22;2167;53.448;9.984;2023-04-06T03:41:19;1.40;12.10
4308;DHT22;2167;53.448;9.984;2023-04-06T03:43:45;1.30;11.10
4308;DHT22;2167;53.448;9.984;2023-04-06T03:46:19;1.30;10.20
4308;DHT22;2167;53.448;9.984;2023-04-06T03:48:47;1.20;10.90
4308;DHT22;2167;53.448;9.984;2023-04-06T03:51:13;1.10;12.10
4308;DHT22;2167;53.448;9.984;2023-04-06T03:53:38;1.10;12.90
4308;DHT22;2167;53.448;9.984;2023-04-06T03:56:04;1.10;13.90
4308;DHT22;2167;53.448;9.984;2023-04-06T03:58:30;1.10;13.50
4308;DHT22;2167;53.448;9.984;2023-04-06T04:00:56;1.00;12.70
4308;DHT22;2167;53.448;9.984;2023-04-06T04:03:21;0.90;12.80
4308;DHT22;2167;53.448;9.984;2023-04-06T04:05:49;0.80;13.10
4308;DHT22;2167;53.448;9.984;2023-04-06T04:08:15;0.80;14.00
4308;DHT22;2167;53.448;9.984;2023-04-06T04:10:41;0.70;14.50
4308;DHT22;2167;53.448;9.984;2023-04-06T04:13:16;0.70;15.70
4308;DHT22;2167;53.448;9.984;2023-04-06T04:15:42;0.70;16.90
4308;DHT22;2167;53.448;9.984;2023-04-06T04:18:08;0.70;16.50
4308;DHT22;2167;53.448;9.984;2023-04-06T04:20:33;0.70;16.70
4308;DHT22;2167;53.448;9.984;2023-04-06T04:23:00;0.70;16.40
4308;DHT22;2167;53.448;9.984;2023-04-06T04:25:26;0.70;15.80
4308;DHT22;2167;53.448;9.984;2023-04-06T04:27:51;0.60;15.70
4308;DHT22;2167;53.448;9.984;2023-04-06T04:30:17;0.60;15.60
4308;DHT22;2167;53.448;9.984;2023-04-06T04:32:42;0.60;16.00
4308;DHT22;2167;53.448;9.984;2023-04-06T04:35:08;0.60;15.70
4308;DHT22;2167;53.448;9.984;2023-04-06T04:37:34;0.70;16.10
4308;DHT22;2167;53.448;9.984;2023-04-06T04:40:00;0.70;16.00
4308;DHT22;2167;53.448;9.984;2023-04-06T04:42:26;0.70;15.60
4308;DHT22;2167;53.448;9.984;2023-04-06T04:44:51;0.70;14.30
4308;DHT22;2167;53.448;9.984;2023-04-06T04:47:18;0.70;13.90
4308;DHT22;2167;53.448;9.984;2023-04-06T04:49:44;0.60;13.60
4308;DHT22;2167;53.448;9.984;2023-04-06T04:52:10;0.60;13.10
4308;DHT22;2167;53.448;9.984;2023-04-06T04:54:35;0.60;13.10
4308;DHT22;2167;53.448;9.984;2023-04-06T04:57:01;0.60;13.70
4308;DHT22;2167;53.448;9.984;2023-04-06T04:59:27;0.60;13.60
4308;DHT22;2167;53.448;9.984;2023-04-06T05:01:56;0.60;13.20
4308;DHT22;2167;53.448;9.984;2023-04-06T05:04:22;0.60;13.10
4308;DHT22;2167;53.448;9.984;2023-04-06T05:06:48;0.60;13.70
4308;DHT22;2167;53.448;9.984;2023-04-06T05:09:14;0.60;14.30
4308;DHT22;2167;53.448;9.984;2023-04-06T05:11:40;0.70;14.40
4308;DHT22;2167;53.448;9.984;2023-04-06T05:14:06;0.60;13.60
4308;DHT22;2167;53.448;9.984;2023-04-06T05:16:32;0.60;13.80
4308;DHT22;2167;53.448;9.984;2023-04-06T05:18:58;0.70;13.30
4308;DHT22;2167;53.448;9.984;2023-04-06T05:21:23;0.70;13.40
4308;DHT22;2167;53.448;9.984;2023-04-06T05:23:50;0.70;12.90
4308;DHT22;2167;53.448;9.984;2023-04-06T05:26:15;0.70;12.50
4308;DHT22;2167;53.448;9.984;2023-04-06T05:28:41;0.80;12.70
4308;DHT22;2167;53.448;9.984;2023-04-06T05:31:08;0.80;12.70
4308;DHT22;2167;53.448;9.984;2023-04-06T05:33:33;0.80;12.80
4308;DHT22;2167;53.448;9.984;2023-04-06T05:35:59;0.80;13.10
4308;DHT22;2167;53.448;9.984;2023-04-06T05:38:26;0.80;13.80
4308;DHT22;2167;53.448;9.984;2023-04-06T05:40:51;0.80;13.70
4308;DHT22;2167;53.448;9.984;2023-04-06T05:43:17;0.80;13.40
4308;DHT22;2167;53.448;9.984;2023-04-06T05:45:45;0.90;13.50
4308;DHT22;2167;53.448;9.984;2023-04-06T05:48:13;0.90;13.80
4308;DHT22;2167;53.448;9.984;2023-04-06T05:50:39;0.90;14.20
4308;DHT22;2167;53.448;9.984;2023-04-06T05:53:05;1.00;15.40
4308;DHT22;2167;53.448;9.984;2023-04-06T05:55:31;1.10;15.50
4308;DHT22;2167;53.448;9.984;2023-04-06T05:57:56;1.20;16.20
4308;DHT22;2167;53.448;9.984;2023-04-06T06:00:22;1.30;16.70
4308;DHT22;2167;53.448;9.984;2023-04-06T06:02:48;1.40;16.90
4308;DHT22;2167;53.448;9.984;2023-04-06T06:05:13;1.50;17.00
4308;DHT22;2167;53.448;9.984;2023-04-06T06:07:39;1.60;16.90
4308;DHT22;2167;53.448;9.984;2023-04-06T06:10:05;1.70;16.60
4308;DHT22;2167;53.448;9.984;2023-04-06T06:12:31;1.70;16.50
4308;DHT22;2167;53.448;9.984;2023-04-06T06:14:57;1.80;16.20
4308;DHT22;2167;53.448;9.984;2023-04-06T06:17:22;1.90;15.50
4308;DHT22;2167;53.448;9.984;2023-04-06T06:19:48;1.90;15.20
4308;DHT22;2167;53.448;9.984;2023-04-06T06:22:13;2.00;15.40
4308;DHT22;2167;53.448;9.984;2023-04-06T06:24:39;2.10;15.20
4308;DHT22;2167;53.448;9.984;2023-04-06T06:27:05;2.10;14.80
4308;DHT22;2167;53.448;9.984;2023-04-06T06:29:30;2.10;15.20
4308;DHT22;2167;53.448;9.984;2023-04-06T06:31:56;2.20;15.50
4308;DHT22;2167;53.448;9.984;2023-04-06T06:34:22;2.30;15.40
4308;DHT22;2167;53.448;9.984;2023-04-06T06:36:47;2.40;15.40
4308;DHT22;2167;53.448;9.984;2023-04-06T06:39:13;2.40;15.20
4308;DHT22;2167;53.448;9.984;2023-04-06T06:41:38;2.50;13.70
4308;DHT22;2167;53.448;9.984;2023-04-06T06:44:04;2.60;13.10
4308;DHT22;2167;53.448;9.984;2023-04-06T06:46:30;2.60;12.40
4308;DHT22;2167;53.448;9.984;2023-04-06T06:48:56;2.60;11.80
4308;DHT22;2167;53.448;9.984;2023-04-06T06:51:22;2.70;12.20
4308;DHT22;2167;53.448;9.984;2023-04-06T06:53:48;2.80;12.40
4308;DHT22;2167;53.448;9.984;2023-04-06T06:56:13;2.90;11.80
4308;DHT22;2167;53.448;9.984;2023-04-06T06:58:39;2.90;11.60
4308;DHT22;2167;53.448;9.984;2023-04-06T07:01:04;3.00;11.70
4308;DHT22;2167;53.448;9.984;2023-04-06T07:03:30;3.00;10.80
4308;DHT22;2167;53.448;9.984;2023-04-06T07:05:56;3.10;10.30
4308;DHT22;2167;53.448;9.984;2023-04-06T07:08:23;3.30;9.20
4308;DHT22;2167;53.448;9.984;2023-04-06T07:10:53;3.30;8.20
4308;DHT22;2167;53.448;9.984;2023-04-06T07:13:19;3.40;7.20
4308;DHT22;2167;53.448;9.984;2023-04-06T07:15:51;3.40;7.70
4308;DHT22;2167;53.448;9.984;2023-04-06T07:18:18;3.50;7.60
4308;DHT22;2167;53.448;9.984;2023-04-06T07:20:44;3.60;7.20
4308;DHT22;2167;53.448;9.984;2023-04-06T07:23:10;3.70;7.10
4308;DHT22;2167;53.448;9.984;2023-04-06T07:25:36;3.80;6.60
4308;DHT22;2167;53.448;9.984;2023-04-06T07:28:05;3.80;4.80
4308;DHT22;2167;53.448;9.984;2023-04-06T07:30:32;4.00;2.40
4308;DHT22;2167;53.448;9.984;2023-04-06T07:32:57;4.00;2.20
4308;DHT22;2167;53.448;9.984;2023-04-06T07:35:26;4.10;2.00
4308;DHT22;2167;53.448;9.984;2023-04-06T07:37:53;4.20;2.00
4308;DHT22;2167;53.448;9.984;2023-04-06T07:40:19;4.40;2.40
4308;DHT22;2167;53.448;9.984;2023-04-06T07:42:45;4.50;1.60
4308;DHT22;2167;53.448;9.984;2023-04-06T07:45:11;4.70;1.00
4308;DHT22;2167;53.448;9.984;2023-04-06T07:47:37;4.80;1.00
4308;DHT22;2167;53.448;9.984;2023-04-06T07:50:03;4.90;1.00
4308;DHT22;2167;53.448;9.984;2023-04-06T07:52:28;5.10;1.00
4308;DHT22;2167;53.448;9.984;2023-04-06T07:54:54;5.20;1.00
4308;DHT22;2167;53.448;9.984;2023-04-06T07:57:20;5.30;1.00
4308;DHT22;2167;53.448;9.984;2023-04-06T07:59:45;5.30;1.00
4308;DHT22;2167;53.448;9.984;2023-04-06T08:02:11;5.50;1.00
4308;DHT22;2167;53.448;9.984;2023-04-06T08:04:37;5.60;1.00
4308;DHT22;2167;53.448;9.984;2023-04-06T08:07:02;5.70;1.00
4308;DHT22;2167;53.448;9.984;2023-04-06T08:09:28;5.80;1.00
4308;DHT22;2167;53.448;9.984;2023-04-06T08:11:54;5.90;1.00
4308;DHT22;2167;53.448;9.984;2023-04-06T08:14:20;6.00;1.00
4308;DHT22;2167;53.448;9.984;2023-04-06T08:16:46;6.20;1.00
4308;DHT22;2167;53.448;9.984;2023-04-06T08:19:14;6.20;1.00
4308;DHT22;2167;53.448;9.984;2023-04-06T08:21:43;6.30;1.00
4308;DHT22;2167;53.448;9.984;2023-04-06T08:24:08;6.40;1.00
4308;DHT22;2167;53.448;9.984;2023-04-06T08:26:34;6.70;1.00
4308;DHT22;2167;53.448;9.984;2023-04-06T08:29:00;6.80;1.00
4308;DHT22;2167;53.448;9.984;2023-04-06T08:31:26;7.00;1.00
4308;DHT22;2167;53.448;9.984;2023-04-06T08:33:52;7.20;1.00
4308;DHT22;2167;53.448;9.984;2023-04-06T08:36:17;7.40;1.00
4308;DHT22;2167;53.448;9.984;2023-04-06T08:38:48;7.70;1.00
4308;DHT22;2167;53.448;9.984;2023-04-06T08:41:15;7.90;1.00
4308;DHT22;2167;53.448;9.984;2023-04-06T08:44:00;8.20;1.00
4308;DHT22;2167;53.448;9.984;2023-04-06T08:46:26;8.50;1.00
4308;DHT22;2167;53.448;9.984;2023-04-06T08:49:00;8.70;1.00
4308;DHT22;2167;53.448;9.984;2023-04-06T08:51:28;8.90;1.00
4308;DHT22;2167;53.448;9.984;2023-04-06T08:53:58;9.10;1.00
4308;DHT22;2167;53.448;9.984;2023-04-06T08:56:26;9.40;1.00
4308;DHT22;2167;53.448;9.984;2023-04-06T08:58:53;9.50;1.00
4308;DHT22;2167;53.448;9.984;2023-04-06T09:01:21;9.70;1.00
4308;DHT22;2167;53.448;9.984;2023-04-06T09:03:49;9.90;1.00
4308;DHT22;2167;53.448;9.984;2023-04-06T09:06:16;10.10;1.00
4308;DHT22;2167;53.448;9.984;2023-04-06T09:08:42;10.20;1.00
4308;DHT22;2167;53.448;9.984;2023-04-06T09:11:08;10.30;1.00
4308;DHT22;2167;53.448;9.984;2023-04-06T09:13:49;10.40;1.00
4308;DHT22;2167;53.448;9.984;2023-04-06T09:16:15;10.40;1.00
4308;DHT22;2167;53.448;9.984;2023-04-06T09:18:42;10.30;1.00
4308;DHT22;2167;53.448;9.984;2023-04-06T09:21:08;10.20;1.00
4308;DHT22;2167;53.448;9.984;2023-04-06T09:23:35;10.10;1.00
4308;DHT22;2167;53.448;9.984;2023-04-06T09:26:17;10.10;1.00
4308;DHT22;2167;53.448;9.984;2023-04-06T09:28:49;10.20;1.00
4308;DHT22;2167;53.448;9.984;2023-04-06T09:31:16;10.30;1.00
4308;DHT22;2167;53.448;9.984;2023-04-06T09:33:44;10.50;1.00
4308;DHT22;2167;53.448;9.984;2023-04-06T09:36:11;10.60;1.00
4308;DHT22;2167;53.448;9.984;2023-04-06T09:38:38;10.80;1.00
4308;DHT22;2167;53.448;9.984;2023-04-06T09:41:05;11.00;1.00
4308;DHT22;2167;53.448;9.984;2023-04-06T09:43:31;11.30;1.00
4308;DHT22;2167;53.448;9.984;2023-04-06T09:45:56;11.30;1.00
4308;DHT22;2167;53.448;9.984;2023-04-06T09:48:24;11.30;1.00
4308;DHT22;2167;53.448;9.984;2023-04-06T09:50:54;11.30;1.00
4308;DHT22;2167;53.448;9.984;2023-04-06T09:53:25;11.30;1.00
4308;DHT22;2167;53.448;9.984;2023-04-06T09:55:57;11.50;1.00
4308;DHT22;2167;53.448;9.984;2023-04-06T09:58:24;11.60;1.00
4308;DHT22;2167;53.448;9.984;2023-04-06T10:01:07;11.80;1.00
4308;DHT22;2167;53.448;9.984;2023-04-06T10:04:02;12.20;1.00
4308;DHT22;2167;53.448;9.984;2023-04-06T10:06:31;12.20;1.00
4308;DHT22;2167;53.448;9.984;2023-04-06T10:08:59;12.10;1.00
4308;DHT22;2167;53.448;9.984;2023-04-06T10:11:27;12.10;1.00
4308;DHT22;2167;53.448;9.984;2023-04-06T10:13:54;12.00;1.00
4308;DHT22;2167;53.448;9.984;2023-04-06T10:16:21;12.10;1.00
4308;DHT22;2167;53.448;9.984;2023-04-06T10:18:53;12.20;1.00
4308;DHT22;2167;53.448;9.984;2023-04-06T10:21:23;12.40;1.00
4308;DHT22;2167;53.448;9.984;2023-04-06T10:23:53;12.50;1.00
4308;DHT22;2167;53.448;9.984;2023-04-06T10:26:21;12.70;1.00
4308;DHT22;2167;53.448;9.984;2023-04-06T10:28:48;12.90;1.00
4308;DHT22;2167;53.448;9.984;2023-04-06T10:31:26;12.90;1.00
4308;DHT22;2167;53.448;9.984;2023-04-06T10:33:58;12.80;1.00
4308;DHT22;2167;53.448;9.984;2023-04-06T10:36:31;12.90;1.00
4308;DHT22;2167;53.448;9.984;2023-04-06T10:38:59;12.90;1.00
4308;DHT22;2167;53.448;9.984;2023-04-06T10:41:42;13.00;1.00
4308;DHT22;2167;53.448;9.984;2023-04-06T10:44:17;13.10;1.00
4308;DHT22;2167;53.448;9.984;2023-04-06T10:46:56;13.10;1.00
4308;DHT22;2167;53.448;9.984;2023-04-06T10:49:22;13.10;1.00
4308;DHT22;2167;53.448;9.984;2023-04-06T10:51:54;13.00;1.00
4308;DHT22;2167;53.448;9.984;2023-04-06T10:54:25;13.10;1.00
4308;DHT22;2167;53.448;9.984;2023-04-06T10:56:52;13.20;1.00
4308;DHT22;2167;53.448;9.984;2023-04-06T10:59:21;13.40;1.00
4308;DHT22;2167;53.448;9.984;2023-04-06T11:01:46;13.70;1.00
4308;DHT22;2167;53.448;9.984;2023-04-06T11:04:19;13.80;1.00
4308;DHT22;2167;53.448;9.984;2023-04-06T11:06:49;13.80;1.00
4308;DHT22;2167;53.448;9.984;2023-04-06T11:09:28;13.60;1.00
4308;DHT22;2167;53.448;9.984;2023-04-06T11:12:04;13.70;1.00
4308;DHT22;2167;53.448;9.984;2023-04-06T11:14:35;13.90;1.00
4308;DHT22;2167;53.448;9.984;2023-04-06T11:17:01;14.20;1.00
4308;DHT22;2167;53.448;9.984;2023-04-06T11:19:27;14.40;1.00
4308;DHT22;2167;53.448;9.984;2023-04-06T11:21:52;14.70;1.00
4308;DHT22;2167;53.448;9.984;2023-04-06T11:24:23;14.70;1.00
4308;DHT22;2167;53.448;9.984;2023-04-06T11:29:18;14.60;1.00
4308;DHT22;2167;53.448;9.984;2023-04-06T11:31:51;14.50;1.00
4308;DHT22;2167;53.448;9.984;2023-04-06T11:34:20;14.40;1.00
4308;DHT22;2167;53.448;9.984;2023-04-06T11:36:47;14.50;1.00
4308;DHT22;2167;53.448;9.984;2023-04-06T11:39:18;14.40;1.00
4308;DHT22;2167;53.448;9.984;2023-04-06T11:41:48;14.20;1.00
4308;DHT22;2167;53.448;9.984;2023-04-06T11:44:15;14.20;1.00
4308;DHT22;2167;53.448;9.984;2023-04-06T11:46:41;14.40;1.00
4308;DHT22;2167;53.448;9.984;2023-04-06T11:49:16;14.60;1.00
4308;DHT22;2167;53.448;9.984;2023-04-06T11:51:42;14.70;1.00
4308;DHT22;2167;53.448;9.984;2023-04-06T11:54:08;14.80;1.00
4308;DHT22;2167;53.448;9.984;2023-04-06T11:56:33;14.80;1.00
4308;DHT22;2167;53.448;9.984;2023-04-06T11:58:59;14.90;1.00
4308;DHT22;2167;53.448;9.984;2023-04-06T12:01:26;15.00;1.00
4308;DHT22;2167;53.448;9.984;2023-04-06T12:03:52;15.10;1.00
4308;DHT22;2167;53.448;9.984;2023-04-06T12:06:18;15.20;1.00
4308;DHT22;2167;53.448;9.984;2023-04-06T12:08:44;15.30;1.00
4308;DHT22;2167;53.448;9.984;2023-04-06T12:11:10;15.30;1.00
4308;DHT22;2167;53.448;9.984;2023-04-06T12:13:37;15.40;1.00
4308;DHT22;2167;53.448;9.984;2023-04-06T12:16:02;15.50;1.00
4308;DHT22;2167;53.448;9.984;2023-04-06T12:18:29;15.50;1.00
4308;DHT22;2167;53.448;9.984;2023-04-06T12:20:55;15.50;1.00
4308;DHT22;2167;53.448;9.984;2023-04-06T12:23:21;15.40;1.00
4308;DHT22;2167;53.448;9.984;2023-04-06T12:25:47;15.50;1.00
4308;DHT22;2167;53.448;9.984;2023-04-06T12:28:12;15.50;1.00
4308;DHT22;2167;53.448;9.984;2023-04-06T12:30:38;15.40;1.00
4308;DHT22;2167;53.448;9.984;2023-04-06T12:33:06;15.30;1.00
4308;DHT22;2167;53.448;9.984;2023-04-06T12:35:36;15.10;1.00
4308;DHT22;2167;53.448;9.984;2023-04-06T12:38:02;15.20;1.00
4308;DHT22;2167;53.448;9.984;2023-04-06T12:40:29;15.20;1.00
4308;DHT22;2167;53.448;9.984;2023-04-06T12:42:54;15.20;1.00
4308;DHT22;2167;53.448;9.984;2023-04-06T12:45:20;15.30;1.00
4308;DHT22;2167;53.448;9.984;2023-04-06T12:47:46;15.50;1.00
4308;DHT22;2167;53.448;9.984;2023-04-06T12:50:12;15.80;1.00
4308;DHT22;2167;53.448;9.984;2023-04-06T12:52:37;15.90;1.00
4308;DHT22;2167;53.448;9.984;2023-04-06T12:55:03;16.00;1.00
4308;DHT22;2167;53.448;9.984;2023-04-06T12:57:30;16.00;1.00
4308;DHT22;2167;53.448;9.984;2023-04-06T12:59:57;16.20;1.00
4308;DHT22;2167;53.448;9.984;2023-04-06T13:02:23;16.10;1.00
4308;DHT22;2167;53.448;9.984;2023-04-06T13:04:49;16.20;1.00
4308;DHT22;2167;53.448;9.984;2023-04-06T13:07:15;16.20;1.00
4308;DHT22;2167;53.448;9.984;2023-04-06T13:09:41;16.00;1.00
4308;DHT22;2167;53.448;9.984;2023-04-06T13:12:15;16.00;1.00
4308;DHT22;2167;53.448;9.984;2023-04-06T13:14:40;16.10;1.00
4308;DHT22;2167;53.448;9.984;2023-04-06T13:17:06;16.10;1.00
4308;DHT22;2167;53.448;9.984;2023-04-06T13:19:32;15.80;1.00
4308;DHT22;2167;53.448;9.984;2023-04-06T13:21:58;15.80;1.00
4308;DHT22;2167;53.448;9.984;2023-04-06T13:24:24;15.90;1.00
4308;DHT22;2167;53.448;9.984;2023-04-06T13:26:50;16.10;1.00
4308;DHT22;2167;53.448;9.984;2023-04-06T13:29:15;16.20;1.00
4308;DHT22;2167;53.448;9.984;2023-04-06T13:31:41;16.40;1.00
4308;DHT22;2167;53.448;9.984;2023-04-06T13:34:07;16.50;1.00
4308;DHT22;2167;53.448;9.984;2023-04-06T13:36:32;16.30;1.00
4308;DHT22;2167;53.448;9.984;2023-04-06T13:38:58;16.20;1.00
4308;DHT22;2167;53.448;9.984;2023-04-06T13:41:25;15.80;1.00
4308;DHT22;2167;53.448;9.984;2023-04-06T13:43:52;15.70;1.00
4308;DHT22;2167;53.448;9.984;2023-04-06T13:46:17;15.60;1.00
4308;DHT22;2167;53.448;9.984;2023-04-06T13:48:43;15.70;1.00
4308;DHT22;2167;53.448;9.984;2023-04-06T13:51:13;15.80;1.00
4308;DHT22;2167;53.448;9.984;2023-04-06T13:53:40;16.00;1.00
4308;DHT22;2167;53.448;9.984;2023-04-06T13:56:07;16.20;1.00
4308;DHT22;2167;53.448;9.984;2023-04-06T13:58:33;16.30;1.00
4308;DHT22;2167;53.448;9.984;2023-04-06T14:01:06;16.50;1.00
4308;DHT22;2167;53.448;9.984;2023-04-06T14:03:35;16.60;1.00
4308;DHT22;2167;53.448;9.984;2023-04-06T14:06:01;16.50;1.00
4308;DHT22;2167;53.448;9.984;2023-04-06T14:08:34;16.50;1.00
4308;DHT22;2167;53.448;9.984;2023-04-06T14:11:00;16.50;1.00
4308;DHT22;2167;53.448;9.984;2023-04-06T14:13:26;16.60;1.00
4308;DHT22;2167;53.448;9.984;2023-04-06T14:15:55;16.50;1.00
4308;DHT22;2167;53.448;9.984;2023-04-06T14:18:21;16.60;1.00
4308;DHT22;2167;53.448;9.984;2023-04-06T14:20:55;16.40;1.00
4308;DHT22;2167;53.448;9.984;2023-04-06T14:23:25;16.40;1.00
4308;DHT22;2167;53.448;9.984;2023-04-06T14:26:07;16.50;1.00
4308;DHT22;2167;53.448;9.984;2023-04-06T14:28:34;16.70;1.00
4308;DHT22;2167;53.448;9.984;2023-04-06T14:31:09;16.80;1.00
4308;DHT22;2167;53.448;9.984;2023-04-06T14:33:35;16.80;1.00
4308;DHT22;2167;53.448;9.984;2023-04-06T14:36:04;16.70;1.00
4308;DHT22;2167;53.448;9.984;2023-04-06T14:38:31;16.50;1.00
4308;DHT22;2167;53.448;9.984;2023-04-06T14:40:58;16.50;1.00
4308;DHT22;2167;53.448;9.984;2023-04-06T14:43:23;16.50;1.00
4308;DHT22;2167;53.448;9.984;2023-04-06T14:45:50;16.50;1.00
4308;DHT22;2167;53.448;9.984;2023-04-06T14:48:16;16.60;1.00
4308;DHT22;2167;53.448;9.984;2023-04-06T14:50:52;16.80;1.00
4308;DHT22;2167;53.448;9.984;2023-04-06T14:53:19;16.80;1.00
4308;DHT22;2167;53.448;9.984;2023-04-06T14:55:44;16.70;1.00
4308;DHT22;2167;53.448;9.984;2023-04-06T14:58:10;16.50;1.00
4308;DHT22;2167;53.448;9.984;2023-04-06T15:00:39;16.50;1.00
4308;DHT22;2167;53.448;9.984;2023-04-06T15:03:04;16.60;1.00
4308;DHT22;2167;53.448;9.984;2023-04-06T15:05:30;16.50;1.00
4308;DHT22;2167;53.448;9.984;2023-04-06T15:07:57;16.40;1.00
4308;DHT22;2167;53.448;9.984;2023-04-06T15:10:22;16.60;1.00
4308;DHT22;2167;53.448;9.984;2023-04-06T15:12:48;16.80;1.00
4308;DHT22;2167;53.448;9.984;2023-04-06T15:15:14;16.80;1.00
4308;DHT22;2167;53.448;9.984;2023-04-06T15:17:39;16.70;1.00
4308;DHT22;2167;53.448;9.984;2023-04-06T15:20:05;16.70;1.00
4308;DHT22;2167;53.448;9.984;2023-04-06T15:22:31;16.80;1.00
4308;DHT22;2167;53.448;9.984;2023-04-06T15:24:57;16.80;1.00
4308;DHT22;2167;53.448;9.984;2023-04-06T15:27:23;16.90;1.00
4308;DHT22;2167;53.448;9.984;2023-04-06T15:29:49;16.70;1.00
4308;DHT22;2167;53.448;9.984;2023-04-06T15:32:15;16.70;1.00
4308;DHT22;2167;53.448;9.984;2023-04-06T15:34:40;16.80;1.00
4308;DHT22;2167;53.448;9.984;2023-04-06T15:37:06;16.70;1.00
4308;DHT22;2167;53.448;9.984;2023-04-06T15:39:32;16.60;1.00
4308;DHT22;2167;53.448;9.984;2023-04-06T15:41:58;16.40;1.00
4308;DHT22;2167;53.448;9.984;2023-04-06T15:44:24;16.30;1.00
4308;DHT22;2167;53.448;9.984;2023-04-06T15:46:50;16.30;1.00
4308;DHT22;2167;53.448;9.984;2023-04-06T15:49:18;16.20;1.00
4308;DHT22;2167;53.448;9.984;2023-04-06T15:51:45;16.30;1.00
4308;DHT22;2167;53.448;9.984;2023-04-06T15:54:11;16.40;1.00
4308;DHT22;2167;53.448;9.984;2023-04-06T15:56:37;16.40;1.00
4308;DHT22;2167;53.448;9.984;2023-04-06T15:59:03;16.30;1.00
4308;DHT22;2167;53.448;9.984;2023-04-06T16:01:29;16.30;1.00
4308;DHT22;2167;53.448;9.984;2023-04-06T16:03:55;16.30;1.00
4308;DHT22;2167;53.448;9.984;2023-04-06T16:06:21;16.20;1.00
4308;DHT22;2167;53.448;9.984;2023-04-06T16:08:47;16.10;1.00
4308;DHT22;2167;53.448;9.984;2023-04-06T16:11:13;15.80;1.00
4308;DHT22;2167;53.448;9.984;2023-04-06T16:13:38;15.80;1.00
4308;DHT22;2167;53.448;9.984;2023-04-06T16:16:05;15.80;1.00
4308;DHT22;2167;53.448;9.984;2023-04-06T16:18:31;15.60;1.00
4308;DHT22;2167;53.448;9.984;2023-04-06T16:20:56;15.60;1.00
4308;DHT22;2167;53.448;9.984;2023-04-06T16:23:22;15.60;1.00